Terminal Aerodrome Forecast
Issued by NWS Northern Indiana

Home | Current Version | Previous Version | Text Only | Print | Product List | Glossary On
Versions: 1 2 3 4 5 6 7 8 9 10 11 12 13 14 15 16 17
000
FTUS43 KIWX 190900 AAA
TAFFWA
TAF AMD
KFWA 190912Z 1909/2006 08004KT P6SM SKC
      TEMPO 1909/1912 3SM BR
     FM191500 12010KT P6SM SCT250=

USA.gov is the U.S. government's official web portal to all federal, state and local government web resources and services.